Terminal Aerodrome Forecast
Issued by NWS

Current Version | Previous Version | Text Only | Print | Product List | Glossary On
Versions: 1 2 3 4 5 6 7 8 9 10 11 12
000
FTUS46 KHNX 310500
TAFMER
TAF
KMER 310530Z 3106/0106 35006KT P6SM SCT150
     FM310900 VRB03KT P6SM SKC
     FM311800 33007KT P6SM SKC=

USA.gov is the U.S. government's official web portal to all federal, state and local government web resources and services.